Time;durP1;ratioP1;P1;durP2;ratioP2;P2;SDS_P1;SDS_P2;PMS_P1;PMS_P2;Temp;Humidity;BMP_temperature;BMP_pressure;BME280_temperature;BME280_humidity;BME280_pressure;Samples;Min_cycle;Max_cycle;Signal;HPM_P1;HPM_P2
2021/06/28 00:01:12;;;;;;;16.75;5.87;;;;;;;18.84;55.61;100849.87;1670948;82;25814;-62
2021/06/28 00:03:42;;;;;;;12.47;7.28;;;;;;;18.81;55.67;100850.96;1676298;82;26448;-62
2021/06/28 00:06:08;;;;;;;14.28;6.50;;;;;;;18.79;55.80;100851.56;1661020;82;25872;-62
2021/06/28 00:08:37;;;;;;;13.85;7.12;;;;;;;18.77;55.92;100851.30;1674165;83;26298;-62
2021/06/28 00:11:06;;;;;;;14.47;6.90;;;;;;;18.72;56.07;100843.98;1677888;83;25777;-62
2021/06/28 00:13:34;;;;;;;16.45;6.67;;;;;;;18.70;56.22;100844.10;1666850;84;26472;-62
2021/06/28 00:16:01;;;;;;;11.55;6.45;;;;;;;18.69;56.37;100844.22;1667963;84;25826;-62
2021/06/28 00:18:32;;;;;;;11.97;7.08;;;;;;;18.65;56.48;100844.06;1684272;84;25756;-62
2021/06/28 00:21:00;;;;;;;11.97;6.72;;;;;;;18.63;56.61;100846.89;1689424;84;25701;-62
2021/06/28 00:23:28;;;;;;;11.22;6.22;;;;;;;18.61;56.75;100842.55;1689437;84;27497;-61
2021/06/28 00:25:53;;;;;;;13.40;6.35;;;;;;;18.60;56.86;100843.50;1688908;84;25696;-62
2021/06/28 00:28:22;;;;;;;11.78;6.22;;;;;;;18.56;57.00;100839.28;1689152;84;25680;-62
2021/06/28 00:30:50;;;;;;;17.35;7.47;;;;;;;18.55;57.14;100844.33;1689505;84;26056;-61
2021/06/28 00:33:19;;;;;;;10.25;7.50;;;;;;;18.53;57.22;100847.16;1689361;84;25722;-62
2021/06/28 00:35:48;;;;;;;16.23;6.45;;;;;;;18.50;57.35;100841.46;1689135;84;26896;-62
2021/06/28 00:38:17;;;;;;;10.40;6.60;;;;;;;18.48;57.53;100843.91;1689452;84;25668;-62
2021/06/28 00:40:45;;;;;;;11.83;6.70;;;;;;;18.46;57.64;100836.38;1689003;84;25745;-62
2021/06/28 00:43:12;;;;;;;11.93;6.00;;;;;;;18.43;57.77;100841.53;1688984;84;25751;-63
2021/06/28 00:45:41;;;;;;;18.67;6.62;;;;;;;18.40;57.86;100837.69;1689441;84;25598;-62
2021/06/28 00:48:11;;;;;;;18.57;6.92;;;;;;;18.35;57.99;100839.87;1687985;82;27554;-61
2021/06/28 00:50:50;;;;;;;9.28;7.03;;;;;;;18.32;58.15;100842.80;1688941;83;25772;-61
2021/06/28 00:53:23;;;;;;;12.30;6.53;;;;;;;18.28;58.25;100845.36;1709287;81;25807;-61
2021/06/28 00:55:51;;;;;;;12.18;6.97;;;;;;;18.24;58.33;100847.91;1686113;83;26259;-61
2021/06/28 00:58:18;;;;;;;15.20;6.60;;;;;;;18.24;58.45;100844.33;1697621;81;25754;-61
2021/06/28 01:00:46;;;;;;;11.18;6.95;;;;;;;18.22;58.50;100841.73;1716699;81;27608;-62
2021/06/28 01:03:13;;;;;;;11.05;5.67;;;;;;;18.22;58.62;100844.45;1716890;81;26275;-62
2021/06/28 01:05:42;;;;;;;7.37;6.15;;;;;;;18.21;58.68;100841.84;1717732;81;25793;-61
2021/06/28 01:08:10;;;;;;;8.68;5.65;;;;;;;18.20;58.68;100845.08;1717110;81;25800;-62
2021/06/28 01:10:38;;;;;;;10.30;5.45;;;;;;;18.20;58.72;100848.28;1716436;81;25851;-62
2021/06/28 01:13:06;;;;;;;6.20;5.10;;;;;;;18.20;58.78;100845.56;1717540;81;27448;-62
2021/06/28 01:15:34;;;;;;;10.20;4.78;;;;;;;18.21;58.73;100852.20;1716520;81;25698;-62
2021/06/28 01:18:01;;;;;;;10.98;5.17;;;;;;;18.20;58.71;100841.01;1714689;80;26052;-61
2021/06/28 01:20:29;;;;;;;7.22;5.28;;;;;;;18.19;58.73;100846.05;1725295;81;26321;-62
2021/06/28 01:23:16;;;;;;;7.15;4.97;;;;;;;18.19;58.75;100848.77;1722764;81;26518;-62
2021/06/28 01:25:46;;;;;;;7.40;5.15;;;;;;;18.19;58.78;100851.48;1734302;79;28032;-61
2021/06/28 01:28:14;;;;;;;8.68;5.10;;;;;;;18.20;58.83;100851.86;1726149;81;25657;-61
2021/06/28 01:30:41;;;;;;;7.95;5.17;;;;;;;18.19;58.83;100852.84;1720734;81;25800;-61
2021/06/28 01:33:08;;;;;;;9.50;5.00;;;;;;;18.17;58.84;100841.23;1709684;82;25794;-61
2021/06/28 01:35:37;;;;;;;7.78;5.10;;;;;;;18.16;58.84;100853.92;1659166;83;25706;-62
2021/06/28 01:38:04;;;;;;;9.43;5.33;;;;;;;18.14;58.87;100846.38;1651017;84;29531;-62
2021/06/28 01:40:30;;;;;;;9.63;5.42;;;;;;;18.14;58.91;100844.16;1678896;83;25817;-62
2021/06/28 01:42:57;;;;;;;7.53;5.28;;;;;;;18.12;58.93;100843.41;1680658;83;25843;-62
2021/06/28 01:45:24;;;;;;;9.85;6.40;;;;;;;18.11;58.99;100842.53;1668740;83;25765;-61
2021/06/28 01:47:54;;;;;;;8.40;5.75;;;;;;;18.10;59.01;100850.78;1682331;83;25843;-62
2021/06/28 01:50:26;;;;;;;8.00;5.60;;;;;;;18.08;59.06;100849.53;1677457;83;27388;-61
2021/06/28 01:52:53;;;;;;;9.75;5.95;;;;;;;18.05;59.11;100844.33;1676719;83;25770;-62
2021/06/28 01:55:23;;;;;;;14.63;6.53;;;;;;;18.04;59.17;100851.22;1677278;84;26388;-62
2021/06/28 01:57:59;;;;;;;9.73;6.10;;;;;;;18.01;59.23;100844.66;1685103;84;25804;-61
2021/06/28 02:00:29;;;;;;;9.05;6.25;;;;;;;17.98;59.30;100853.87;1675175;83;25828;-62
2021/06/28 02:03:12;;;;;;;9.00;6.12;;;;;;;17.96;59.38;100844.11;1677381;84;27552;-62
2021/06/28 02:05:44;;;;;;;8.68;5.58;;;;;;;17.92;59.46;100850.24;1674743;83;25758;-61
2021/06/28 02:08:13;;;;;;;6.90;5.70;;;;;;;17.90;59.53;100847.26;1669729;83;25674;-60
2021/06/28 02:10:46;;;;;;;10.78;6.47;;;;;;;17.86;59.55;100845.73;1672786;83;25855;-60
2021/06/28 02:13:17;;;;;;;8.93;6.25;;;;;;;17.82;59.61;100844.59;1674643;83;25704;-61
2021/06/28 02:15:43;;;;;;;9.28;6.12;;;;;;;17.80;59.72;100847.04;1675146;83;27444;-61
2021/06/28 02:18:12;;;;;;;8.83;6.47;;;;;;;17.77;59.82;100841.34;1672277;84;25864;-61
2021/06/28 02:20:38;;;;;;;8.93;5.30;;;;;;;17.76;59.87;100840.96;1678766;83;25785;-61
2021/06/28 02:23:25;;;;;;;9.38;6.30;;;;;;;17.74;59.96;100837.98;1665909;84;25867;-61
2021/06/28 02:25:57;;;;;;;7.90;5.85;;;;;;;17.74;59.99;100842.05;1666014;84;26928;-63
2021/06/28 02:28:27;;;;;;;10.90;6.30;;;;;;;17.74;60.06;100840.20;1654350;84;26369;-61
2021/06/28 02:30:55;;;;;;;7.12;6.40;;;;;;;17.74;60.09;100836.63;1664720;84;25813;-61
2021/06/28 02:33:22;;;;;;;9.08;6.33;;;;;;;17.73;60.13;100841.17;1666327;84;25978;-61
2021/06/28 02:35:51;;;;;;;11.70;6.62;;;;;;;17.74;60.21;100841.56;1665115;84;26462;-61
2021/06/28 02:38:17;;;;;;;8.38;6.37;;;;;;;17.74;60.23;100838.84;1662375;84;25771;-61
2021/06/28 02:40:45;;;;;;;9.23;6.55;;;;;;;17.72;60.25;100834.51;1662299;84;27626;-61
2021/06/28 02:43:11;;;;;;;10.08;6.53;;;;;;;17.71;60.34;100831.41;1661228;84;25987;-61
2021/06/28 02:45:37;;;;;;;13.95;6.90;;;;;;;17.69;60.44;100828.81;1665095;84;25722;-61
2021/06/28 02:48:06;;;;;;;8.63;6.75;;;;;;;17.71;60.50;100833.64;1664100;84;25885;-60
2021/06/28 02:50:36;;;;;;;12.50;6.80;;;;;;;17.73;60.54;100834.89;1664198;84;26021;-60
2021/06/28 02:53:03;;;;;;;10.82;6.45;;;;;;;17.71;60.55;100832.77;1659066;84;27305;-61
2021/06/28 02:55:29;;;;;;;10.93;6.97;;;;;;;17.70;60.60;100835.10;1662786;84;26376;-60
2021/06/28 02:57:59;;;;;;;10.28;7.33;;;;;;;17.68;60.65;100833.85;1662531;84;25790;-61
2021/06/28 03:00:28;;;;;;;8.53;6.58;;;;;;;17.65;60.70;100831.33;1664854;84;26333;-61
2021/06/28 03:02:58;;;;;;;9.95;6.53;;;;;;;17.63;60.81;100834.63;1666097;84;26650;-61
2021/06/28 03:05:22;;;;;;;11.15;6.95;;;;;;;17.64;60.90;100826.87;1680330;82;28096;-61
2021/06/28 03:07:48;;;;;;;10.38;7.15;;;;;;;17.63;60.91;100830.56;1667808;83;26211;-61
2021/06/28 03:10:15;;;;;;;14.35;7.30;;;;;;;17.64;60.99;100831.42;1668735;83;26406;-61
2021/06/28 03:12:42;;;;;;;11.12;7.10;;;;;;;17.64;61.07;100833.66;1663145;83;25828;-62
2021/06/28 03:15:16;;;;;;;12.20;7.72;;;;;;;17.64;61.11;100832.78;1692384;83;25755;-61
2021/06/28 03:17:43;;;;;;;12.68;7.40;;;;;;;17.62;61.17;100829.31;1709873;83;27377;-60
2021/06/28 03:20:14;;;;;;;13.85;7.25;;;;;;;17.62;61.25;100833.37;1689745;83;26042;-61
2021/06/28 03:22:42;;;;;;;11.20;7.70;;;;;;;17.62;61.33;100832.02;1690281;84;25713;-60
2021/06/28 03:25:13;;;;;;;10.15;6.70;;;;;;;17.62;61.43;100832.02;1693531;84;26030;-60
2021/06/28 03:27:41;;;;;;;11.12;7.45;;;;;;;17.60;61.52;100829.42;1690049;84;25641;-60
2021/06/28 03:30:12;;;;;;;15.05;7.87;;;;;;;17.62;61.60;100832.02;1694116;84;27486;-60
2021/06/28 03:32:39;;;;;;;16.27;7.55;;;;;;;17.60;61.65;100828.55;1694450;84;25649;-61
2021/06/28 03:35:09;;;;;;;14.73;7.83;;;;;;;17.61;61.76;100835.22;1694575;84;25645;-61
2021/06/28 03:37:36;;;;;;;8.83;7.12;;;;;;;17.63;61.80;100834.63;1694618;84;25981;-61
2021/06/28 03:40:06;;;;;;;10.68;7.00;;;;;;;17.67;61.87;100828.53;1694720;84;25670;-60
2021/06/28 03:42:32;;;;;;;11.60;7.47;;;;;;;17.70;61.93;100829.19;1694895;84;27380;-60
2021/06/28 03:44:58;;;;;;;12.23;6.60;;;;;;;17.74;62.00;100825.29;1694647;84;26000;-61
2021/06/28 03:47:26;;;;;;;12.73;7.92;;;;;;;17.81;62.07;100832.50;1678991;83;25855;-60
2021/06/28 03:49:54;;;;;;;10.90;7.05;;;;;;;17.84;62.09;100823.67;1661630;84;25805;-61
2021/06/28 03:52:20;;;;;;;12.18;7.12;;;;;;;17.91;62.11;100820.52;1662829;84;25850;-60
2021/06/28 03:54:48;;;;;;;12.28;7.00;;;;;;;17.95;62.09;100823.39;1656402;84;27489;-61
2021/06/28 03:57:13;;;;;;;14.20;6.87;;;;;;;18.00;62.10;100822.09;1656190;84;25771;-61
2021/06/28 03:59:39;;;;;;;11.78;7.83;;;;;;;18.06;62.13;100818.07;1653177;84;25351;-61
2021/06/28 04:02:06;;;;;;;10.25;6.15;;;;;;;18.12;62.15;100814.42;1663035;84;26082;-61
2021/06/28 04:04:32;;;;;;;12.93;7.53;;;;;;;18.20;62.13;100814.36;1660118;84;25940;-61
2021/06/28 04:06:59;;;;;;;10.55;7.10;;;;;;;18.28;62.13;100818.71;1659654;84;27613;-60
2021/06/28 04:09:25;;;;;;;21.70;7.58;;;;;;;18.36;62.12;100817.66;1657987;84;25750;-61
2021/06/28 04:11:53;;;;;;;12.37;7.47;;;;;;;18.42;62.08;100820.80;1659107;84;27851;-61
2021/06/28 04:14:22;;;;;;;15.32;7.22;;;;;;;18.50;62.07;100818.88;1659744;84;25837;-61
2021/06/28 04:16:48;;;;;;;12.63;7.50;;;;;;;18.58;62.01;100816.95;1664304;84;25769;-61
2021/06/28 04:19:14;;;;;;;16.20;7.20;;;;;;;18.64;61.99;100823.33;1662952;83;28227;-61
2021/06/28 04:21:41;;;;;;;12.88;7.78;;;;;;;18.72;62.01;100824.98;1669125;83;25710;-61
2021/06/28 04:24:07;;;;;;;12.73;6.67;;;;;;;18.81;61.99;100820.22;1677810;83;25800;-61
2021/06/28 04:26:35;;;;;;;13.90;7.83;;;;;;;18.90;61.95;100823.61;1677900;83;26184;-61
2021/06/28 04:29:00;;;;;;;11.22;6.83;;;;;;;19.00;61.89;100819.70;1676737;83;25808;-61
2021/06/28 04:31:28;;;;;;;12.33;6.50;;;;;;;19.09;61.81;100825.31;1678985;83;27589;-62
2021/06/28 04:33:55;;;;;;;15.40;6.22;;;;;;;19.17;61.79;100818.42;1677392;83;26676;-62
2021/06/28 04:36:22;;;;;;;11.63;7.15;;;;;;;19.27;61.71;100822.17;1671483;83;25814;-62
2021/06/28 04:38:48;;;;;;;11.68;7.03;;;;;;;19.34;61.67;100820.22;1716299;81;26328;-62
2021/06/28 04:41:14;;;;;;;11.60;6.50;;;;;;;19.44;61.63;100822.60;1715273;81;25817;-62
2021/06/28 04:43:41;;;;;;;9.53;6.28;;;;;;;19.53;61.54;100821.55;1716838;81;27503;-62
2021/06/28 04:46:09;;;;;;;11.03;5.92;;;;;;;19.61;61.47;100815.02;1713716;81;25880;-63
2021/06/28 04:48:38;;;;;;;10.85;5.10;;;;;;;19.71;61.39;100816.03;1713759;81;25866;-61
2021/06/28 04:51:08;;;;;;;6.97;5.70;;;;;;;19.81;61.29;100823.84;1689420;81;25749;-61
2021/06/28 04:53:35;;;;;;;12.88;5.83;;;;;;;19.91;61.16;100811.73;1715482;81;25936;-61
2021/06/28 04:56:05;;;;;;;11.05;5.87;;;;;;;19.98;61.03;100810.25;1712548;81;27617;-61
2021/06/28 04:58:32;;;;;;;14.60;6.97;;;;;;;20.05;60.99;100811.00;1696714;82;26848;-61
2021/06/28 05:01:00;;;;;;;9.28;5.70;;;;;;;20.14;60.86;100811.25;1702010;82;25475;-61
2021/06/28 05:03:27;;;;;;;10.85;5.35;;;;;;;20.23;60.73;100810.02;1715941;80;25831;-62
2021/06/28 05:05:56;;;;;;;8.83;6.03;;;;;;;20.30;60.58;100819.41;1725169;80;25779;-61
2021/06/28 05:08:22;;;;;;;22.85;8.23;;;;;;;20.34;60.46;100815.95;1675121;80;27487;-62
2021/06/28 05:10:48;;;;;;;47.67;8.80;;;;;;;20.38;60.37;100819.69;1713149;80;25818;-61
2021/06/28 05:13:14;;;;;;;17.62;6.42;;;;;;;20.48;60.25;100820.30;1702990;80;25951;-62
2021/06/28 05:15:41;;;;;;;12.63;6.30;;;;;;;20.57;60.17;100816.82;1720431;80;25814;-62
2021/06/28 05:18:07;;;;;;;12.37;6.53;;;;;;;20.63;60.02;100821.77;1706935;82;25716;-61
2021/06/28 05:20:37;;;;;;;10.70;6.45;;;;;;;20.64;59.89;100823.00;1721616;80;29623;-62
2021/06/28 05:23:03;;;;;;;10.05;5.53;;;;;;;20.66;59.78;100823.73;1724557;81;26366;-62
2021/06/28 05:25:32;;;;;;;29.72;5.58;;;;;;;20.70;59.76;100828.44;1716355;81;25975;-61
2021/06/28 05:27:58;;;;;;;19.07;5.60;;;;;;;20.74;59.66;100826.70;1717472;81;25863;-61
2021/06/28 05:30:25;;;;;;;33.50;7.95;;;;;;;20.80;59.59;100832.63;1716868;81;25729;-62
2021/06/28 05:32:50;;;;;;;32.65;6.95;;;;;;;20.86;59.51;100831.59;1709954;81;27072;-62
2021/06/28 05:35:16;;;;;;;27.22;5.25;;;;;;;20.88;59.42;100832.33;1717352;81;25748;-62
2021/06/28 05:37:42;;;;;;;15.32;5.37;;;;;;;20.91;59.33;100829.34;1716913;81;26352;-62
2021/06/28 05:40:11;;;;;;;23.75;5.83;;;;;;;20.97;59.35;100837.01;1716878;81;25840;-61
2021/06/28 05:42:39;;;;;;;19.30;5.42;;;;;;;21.05;59.21;100836.36;1716004;81;26059;-65
2021/06/28 05:45:08;;;;;;;19.95;5.80;;;;;;;21.11;59.17;100840.44;1717254;81;27410;-62
2021/06/28 05:47:38;;;;;;;30.08;7.00;;;;;;;21.11;59.02;100837.20;1716267;81;26454;-62
2021/06/28 05:50:13;;;;;;;13.48;5.90;;;;;;;21.11;59.00;100839.07;1716820;81;26572;-62
2021/06/28 05:52:40;;;;;;;12.93;4.87;;;;;;;21.12;58.95;100839.44;1717630;81;25678;-62
2021/06/28 05:55:08;;;;;;;12.68;5.12;;;;;;;21.16;58.90;100840.91;1716088;81;26561;-61
2021/06/28 05:57:36;;;;;;;21.00;5.10;;;;;;;21.18;58.82;100840.28;1718051;80;27432;-62
2021/06/28 06:00:07;;;;;;;9.15;5.40;;;;;;;21.27;58.87;100846.35;1715442;81;53669;-62
2021/06/28 06:02:36;;;;;;;20.10;7.87;;;;;;;21.31;58.69;100850.55;1718659;81;25719;-62
2021/06/28 06:05:08;;;;;;;17.77;9.88;;;;;;;21.32;58.54;100850.92;1716576;80;25961;-61
2021/06/28 06:07:36;;;;;;;13.83;6.15;;;;;;;21.31;58.49;100857.37;1717753;81;26289;-63
2021/06/28 06:10:05;;;;;;;8.90;5.03;;;;;;;21.28;58.44;100853.04;1729007;80;28229;-63
2021/06/28 06:12:32;;;;;;;7.58;4.15;;;;;;;21.33;58.40;100852.15;1711617;81;27213;-62
2021/06/28 06:14:58;;;;;;;10.85;4.37;;;;;;;21.31;58.17;100851.91;1721037;80;25838;-64
2021/06/28 06:17:23;;;;;;;10.63;4.95;;;;;;;21.30;58.18;100857.00;1717493;81;26112;-61
2021/06/28 06:19:49;;;;;;;9.60;4.40;;;;;;;21.34;58.16;100851.66;1718859;81;25779;-61
2021/06/28 06:22:16;;;;;;;8.73;5.03;;;;;;;21.36;57.97;100856.48;1706537;82;27515;-61
2021/06/28 06:24:42;;;;;;;14.30;5.05;;;;;;;21.38;58.00;100853.98;1705474;82;27242;-63
2021/06/28 06:27:09;;;;;;;8.28;5.08;;;;;;;21.38;57.86;100853.98;1706010;82;25795;-62
2021/06/28 06:29:36;;;;;;;11.57;5.60;;;;;;;21.42;57.85;100858.69;1704210;82;27874;-63
2021/06/28 06:32:03;;;;;;;13.28;5.10;;;;;;;;;;1699604;82;25724;-64
2021/06/28 06:34:31;;;;;;;10.08;5.40;;;;;;;21.62;57.76;100856.48;1706519;82;27451;-65
2021/06/28 06:36:56;;;;;;;11.93;5.15;;;;;;;21.67;57.78;100850.13;1705145;82;27709;-65
2021/06/28 06:39:24;;;;;;;19.40;7.10;;;;;;;21.75;57.72;100853.55;1705655;82;25768;-64
2021/06/28 06:41:53;;;;;;;13.32;5.60;;;;;;;21.85;57.54;100853.12;1704173;82;26435;-65
2021/06/28 06:44:21;;;;;;;13.05;4.97;;;;;;;21.91;57.53;100864.86;1706895;82;25804;-65
2021/06/28 06:46:47;;;;;;;16.32;5.60;;;;;;;21.97;57.46;100865.69;1707082;82;27576;-65
2021/06/28 06:49:16;;;;;;;12.30;5.00;;;;;;;22.05;57.40;100865.55;1697413;82;26013;-64
2021/06/28 06:51:42;;;;;;;6.72;5.12;;;;;;;22.10;57.36;100868.74;1706498;82;25709;-64
2021/06/28 06:54:10;;;;;;;17.17;6.15;;;;;;;22.22;57.30;100875.35;1674212;83;26460;-64
2021/06/28 06:56:37;;;;;;;9.45;5.75;;;;;;;22.29;57.16;100872.95;1673367;82;25720;-64
2021/06/28 06:59:07;;;;;;;15.28;5.80;;;;;;;22.39;57.18;100871.13;1669285;83;27489;-64
2021/06/28 07:01:34;;;;;;;35.55;7.90;;;;;;;22.54;57.13;100871.62;1674336;82;25875;-64
2021/06/28 07:04:01;;;;;;;23.60;5.53;;;;;;;22.62;57.00;100870.42;1672685;82;25694;-64
2021/06/28 07:06:28;;;;;;;11.68;5.00;;;;;;;22.74;57.00;100867.09;1676150;82;25818;-64
2021/06/28 07:08:56;;;;;;;8.60;5.28;;;;;;;22.83;56.72;100872.61;1671619;83;25860;-64
2021/06/28 07:11:27;;;;;;;10.32;5.47;;;;;;;22.81;56.56;100843.69;1664742;83;27513;-64
2021/06/28 07:13:53;;;;;;;;;;;;;;;22.91;56.49;100876.02;1670865;83;25825;-63
2021/06/28 07:16:24;;;;;;;11.25;5.37;;;;;;;22.95;56.55;100881.06;1670775;83;25821;-64
2021/06/28 07:18:48;;;;;;;7.35;5.28;;;;;;;22.99;56.43;100878.41;1676498;83;27744;-64
2021/06/28 07:21:14;;;;;;;53.42;15.43;;;;;;;23.01;56.23;100882.88;1659091;83;25844;-64
2021/06/28 07:23:40;;;;;;;26.82;7.08;;;;;;;23.11;56.21;100886.48;1653561;84;26375;-64
2021/06/28 07:26:07;;;;;;;20.12;6.92;;;;;;;23.25;56.09;100890.19;1661474;84;25909;-64
2021/06/28 07:28:33;;;;;;;19.87;5.85;;;;;;;23.34;55.91;100889.83;1656638;84;26497;-64
2021/06/28 07:31:03;;;;;;;11.70;5.37;;;;;;;23.51;55.77;100895.93;1709153;82;26239;-64
2021/06/28 07:33:38;;;;;;;17.77;5.83;;;;;;;23.66;55.63;100893.16;1709584;82;25775;-64
2021/06/28 07:36:02;;;;;;;;;;;;;;;23.81;55.33;100888.09;1711038;82;27319;-64
2021/06/28 07:38:31;;;;;;;13.88;4.80;;;;;;;23.93;55.15;100889.67;1706175;82;25697;-64
2021/06/28 07:40:57;;;;;;;13.30;5.10;;;;;;;23.95;55.00;100888.52;1707195;82;25791;-64
2021/06/28 07:43:23;;;;;;;7.08;4.62;;;;;;;24.08;54.79;100885.46;1709466;82;28027;-64
2021/06/28 07:45:49;;;;;;;7.45;4.37;;;;;;;24.16;54.46;100880.11;1675415;84;25777;-64
2021/06/28 07:48:17;;;;;;;11.73;5.40;;;;;;;24.19;54.08;100881.69;1652329;84;27465;-66
2021/06/28 07:50:46;;;;;;;12.95;4.80;;;;;;;24.32;53.92;100875.41;1653822;85;25728;-65
2021/06/28 07:53:13;;;;;;;9.95;4.87;;;;;;;24.46;53.74;100873.55;1657470;84;25743;-65
2021/06/28 07:55:42;;;;;;;10.85;4.47;;;;;;;24.60;53.40;100873.06;1662829;84;25954;-65
2021/06/28 07:58:08;;;;;;;11.55;4.75;;;;;;;24.71;53.09;100869.25;1703499;82;25786;-65
2021/06/28 08:00:34;;;;;;;8.38;4.70;;;;;;;24.71;52.85;100873.37;1709269;82;28156;-65
2021/06/28 08:03:02;;;;;;;11.15;5.25;;;;;;;24.76;52.83;100865.55;1707996;82;25930;-65
2021/06/28 08:05:28;;;;;;;9.88;4.90;;;;;;;24.95;52.66;100867.83;1709454;82;25891;-64
2021/06/28 08:07:54;;;;;;;10.68;4.70;;;;;;;25.02;52.27;100868.97;1710165;82;25811;-65
2021/06/28 08:10:21;;;;;;;13.55;5.00;;;;;;;25.00;52.03;100874.61;1711553;82;26339;-65
2021/06/28 08:12:49;;;;;;;6.60;4.97;;;;;;;25.09;51.85;100872.82;1706903;82;28189;-65
2021/06/28 08:15:20;;;;;;;5.90;4.67;;;;;;;25.08;51.60;100868.35;1707194;82;25810;-65
2021/06/28 08:17:49;;;;;;;4.55;4.15;;;;;;;25.05;51.24;100871.41;1708780;82;26321;-64
2021/06/28 08:20:21;;;;;;;6.67;4.70;;;;;;;24.96;51.12;100871.78;1715822;81;25830;-65
2021/06/28 08:22:51;;;;;;;7.12;5.00;;;;;;;25.01;50.85;100865.88;1726745;80;25859;-64
2021/06/28 08:25:25;;;;;;;15.90;5.00;;;;;;;25.04;50.79;100868.31;1718427;81;27389;-65
2021/06/28 08:27:52;;;;;;;8.03;4.22;;;;;;;25.19;50.69;100868.99;1736434;80;25716;-64
2021/06/28 08:30:19;;;;;;;8.03;4.45;;;;;;;25.36;50.57;100870.02;1735016;81;25676;-65
2021/06/28 08:32:45;;;;;;;9.25;4.55;;;;;;;25.42;50.25;100868.03;1719608;80;25854;-65
2021/06/28 08:35:13;;;;;;;6.00;4.05;;;;;;;25.49;50.06;100869.62;1723760;81;25841;-65
2021/06/28 08:37:38;;;;;;;6.87;4.40;;;;;;;25.50;49.66;100865.86;1727088;81;27451;-65
2021/06/28 08:40:10;;;;;;;21.10;5.00;;;;;;;25.48;49.55;100873.39;1729466;81;26566;-65
2021/06/28 08:42:39;;;;;;;8.10;4.85;;;;;;;25.49;49.36;100866.89;1733727;81;26128;-65
2021/06/28 08:45:08;;;;;;;8.73;4.10;;;;;;;25.63;49.32;100869.59;1735025;81;26516;-65
2021/06/28 08:47:34;;;;;;;5.30;3.77;;;;;;;25.76;49.13;100868.70;1732476;81;25761;-65
2021/06/28 08:50:01;;;;;;;4.42;3.58;;;;;;;25.86;48.91;100870.84;1735340;81;29646;-65
2021/06/28 08:52:30;;;;;;;9.35;3.52;;;;;;;25.90;48.61;100871.38;1720729;81;25730;-65
2021/06/28 08:54:55;;;;;;;5.15;3.67;;;;;;;25.83;48.30;100872.53;1731860;80;25835;-65
2021/06/28 08:57:23;;;;;;;14.18;4.92;;;;;;;25.80;48.10;100868.73;1732899;81;26994;-65
2021/06/28 08:59:52;;;;;;;11.08;4.22;;;;;;;25.71;47.73;100863.69;1749377;79;25737;-65
2021/06/28 09:02:19;;;;;;;58.42;5.75;;;;;;;25.69;47.52;100871.22;1732821;80;28243;-65
2021/06/28 09:05:00;;;;;;;14.68;3.85;;;;;;;25.69;47.39;100867.61;1733387;80;25812;-65
2021/06/28 09:07:28;;;;;;;11.22;4.58;;;;;;;25.75;47.20;100868.34;1734728;81;25839;-65
2021/06/28 09:09:55;;;;;;;5.10;3.35;;;;;;;25.73;47.04;100872.62;1737200;80;25908;-65
2021/06/28 09:12:22;;;;;;;6.67;3.65;;;;;;;25.75;46.70;100873.33;1717161;81;25761;-65
2021/06/28 09:14:56;;;;;;;7.03;3.60;;;;;;;25.82;46.80;100868.92;1720580;81;29585;-65
2021/06/28 09:17:39;;;;;;;15.32;4.67;;;;;;;25.96;46.64;100866.11;1719134;81;27120;-65
2021/06/28 09:20:20;;;;;;;12.20;3.90;;;;;;;26.10;46.59;100874.25;1728138;80;25727;-65
2021/06/28 09:22:49;;;;;;;5.30;3.33;;;;;;;26.25;46.45;100880.02;1728466;80;25818;-65
2021/06/28 09:25:39;;;;;;;4.42;2.83;;;;;;;26.33;46.16;100871.85;1718065;81;25875;-65
2021/06/28 09:28:05;;;;;;;7.47;3.50;;;;;;;26.19;45.72;100870.53;1717696;81;27250;-65
2021/06/28 09:30:56;;;;;;;;;;;;;;;;;;;;;
2021/06/28 09:33:05;;;;;;;7.35;2.85;;;;;;;26.14;45.56;100864.15;1714377;81;25921;-65
2021/06/28 09:35:38;;;;;;;10.63;6.22;;;;;;;26.23;45.30;100870.56;1722459;81;25965;-65
2021/06/28 09:38:26;;;;;;;5.00;2.50;;;;;;;26.24;45.14;100868.67;1717996;81;25780;-65
2021/06/28 09:40:52;;;;;;;4.87;2.60;;;;;;;26.24;44.83;100868.67;1717526;81;29671;-65
2021/06/28 09:43:27;;;;;;;5.30;2.92;;;;;;;26.24;44.60;100867.30;1717119;81;26121;-65
2021/06/28 09:45:57;;;;;;;10.60;2.87;;;;;;;26.27;44.42;100865.59;1717425;81;25776;-65
2021/06/28 09:48:30;;;;;;;14.70;3.15;;;;;;;26.31;44.03;100861.50;1716303;81;25816;-65
2021/06/28 09:51:34;;;;;;;3.83;2.90;;;;;;;26.25;43.76;100867.65;1717096;81;25774;-65
2021/06/28 09:54:14;;;;;;;9.93;3.20;;;;;;;26.23;43.59;100856.81;1717249;81;27511;-65
2021/06/28 09:56:44;;;;;;;9.20;3.47;;;;;;;26.22;43.43;100853.72;1721960;80;25897;-65
2021/06/28 09:59:26;;;;;;;8.40;3.40;;;;;;;26.27;43.35;100850.48;1723444;81;26449;-64
2021/06/28 10:02:16;;;;;;;11.35;3.00;;;;;;;26.33;43.20;100851.23;1709220;81;25867;-65
2021/06/28 10:05:11;;;;;;;5.08;3.77;;;;;;;26.39;43.03;100861.58;1722463;81;32390;-65
2021/06/28 10:07:39;;;;;;;5.60;3.00;;;;;;;26.31;42.61;100861.50;1720213;80;27391;-64
2021/06/28 10:10:17;;;;;;;37.98;3.80;;;;;;;26.21;42.64;100854.23;1717587;81;25795;-64
2021/06/28 10:12:55;;;;;;;8.48;3.50;;;;;;;26.29;42.52;100860.80;1711700;81;26207;-64
2021/06/28 10:15:25;;;;;;;5.85;2.83;;;;;;;26.25;42.00;100860.27;1715124;81;25808;-64
2021/06/28 10:17:54;;;;;;;14.50;3.00;;;;;;;26.19;41.98;100857.66;1718067;81;25805;-64
2021/06/28 10:20:25;;;;;;;3.55;2.98;;;;;;;26.20;41.84;100856.63;1716849;81;27416;-64
2021/06/28 10:22:54;;;;;;;5.65;3.25;;;;;;;26.26;41.64;100864.73;1717921;81;25791;-69
2021/06/28 10:25:23;;;;;;;4.33;3.00;;;;;;;26.30;41.64;100851.02;1718069;81;25714;-68
2021/06/28 10:27:51;;;;;;;5.40;3.37;;;;;;;26.40;41.55;100846.30;1717817;81;26368;-68
2021/06/28 10:30:21;;;;;;;4.87;2.42;;;;;;;26.38;41.03;100839.25;1715299;81;25818;-68
2021/06/28 10:32:51;;;;;;;6.12;3.10;;;;;;;26.38;41.13;100825.50;1709275;81;28188;-68
2021/06/28 10:35:26;;;;;;;4.55;2.72;;;;;;;26.56;40.96;100845.52;1714327;81;26067;-68
2021/06/28 10:37:52;;;;;;;2.87;2.37;;;;;;;26.66;40.84;100845.39;1718199;81;26562;-68
2021/06/28 10:40:23;;;;;;;9.43;2.85;;;;;;;26.67;40.87;100841.09;1717734;81;25918;-68
2021/06/28 10:42:56;;;;;;;10.45;3.95;;;;;;;26.76;40.75;100849.73;1717845;81;26032;-68
2021/06/28 10:45:43;;;;;;;2.75;2.55;;;;;;;26.73;40.43;100843.19;1717509;81;27502;-68
2021/06/28 10:48:21;;;;;;;7.45;3.15;;;;;;;26.71;40.63;100841.12;1708591;81;25812;-68
2021/06/28 10:51:01;;;;;;;4.70;2.90;;;;;;;26.75;40.48;100841.13;1717142;81;25767;-68
2021/06/28 10:53:40;;;;;;;4.22;3.08;;;;;;;26.69;40.47;100845.06;1705937;81;26335;-69
2021/06/28 10:56:26;;;;;;;11.15;3.27;;;;;;;26.80;40.49;100834.62;1717322;81;25743;-69
2021/06/28 10:59:03;;;;;;;4.78;3.30;;;;;;;26.87;40.24;100840.31;1714702;81;28279;-69
2021/06/28 11:01:43;;;;;;;3.77;2.90;;;;;;;26.87;40.02;100833.44;1717259;81;25795;-69
2021/06/28 11:04:29;;;;;;;7.35;3.00;;;;;;;26.81;40.15;100840.98;1714877;81;26234;-68
2021/06/28 11:07:09;;;;;;;8.73;3.35;;;;;;;26.86;40.26;100837.21;1715472;81;25850;-68
2021/06/28 11:09:51;;;;;;;11.95;3.72;;;;;;;26.95;40.24;100831.22;1717051;81;26067;-68
2021/06/28 11:12:23;;;;;;;15.40;3.72;;;;;;;26.98;40.12;100829.54;1717611;81;29563;-68
2021/06/28 11:15:17;;;;;;;7.95;3.33;;;;;;;27.03;40.19;100834.89;1717457;81;25927;-68
2021/06/28 11:17:55;;;;;;;12.75;2.70;;;;;;;27.03;40.09;100835.41;1713658;81;26441;-68
2021/06/28 11:20:37;;;;;;;6.95;2.80;;;;;;;27.04;39.74;100827.49;1716045;81;25849;-68
2021/06/28 11:23:17;;;;;;;6.70;3.25;;;;;;;27.08;39.86;100836.62;1722300;81;25864;-68
2021/06/28 11:25:55;;;;;;;7.92;3.40;;;;;;;27.10;39.90;100833.18;1735522;81;28378;-68
2021/06/28 11:28:35;;;;;;;5.22;3.85;;;;;;;27.18;39.90;100826.83;1735810;81;25856;-69
2021/06/28 11:31:09;;;;;;;9.03;2.95;;;;;;;27.09;39.68;100829.22;1724983;81;25738;-69
2021/06/28 11:33:40;;;;;;;8.90;2.80;;;;;;;27.13;39.40;100834.73;1732492;81;25814;-68